Pagrindinis puslapis
METAR-TAF:

METAR-TAF

Oro uostai :

Palacios Municipal Airport

Palacios, Teksasas, Jungtinės Amerikos Valstijos

platuma: 28-43-39N, ilguma: 096-15-03W, Aukštis: 5 m

Dabartinis oras

Ataskaita buvo paskelbta 19 minutes, ne 11:29 UTC
Vėjas 6 kt iš Šiaurės
Temperatūra 22°C
Drėgmė 94%
Slėgis 1016 hPa
Matomumas: 8.0 km
Išsisklaidę debesys ne aukštis 300 ft
rūkana

METAR: KPSX 291129Z AUTO 01006KT 5SM BR SCT003 22/21 A3000 RMK AO2 T02170206

Laikas: 06:48 (11:48 UTC)


TAF: trūkstamas

Orai ataskaitas ir orų prognozės (METAR, TAF).

turimą stotys yra geltonos ir raudonos taškus žemėlapyje.

Perkelti pele per norėdami pamatyti stoties vardą.

Tada spustelėkite, norėdami matyti oro stebėjimo ir prognozės.

Norėdami pakeisti žemėlapį: spustelėkite ant žalios mygtukų su juodo kryžiaus žemyn,; žalią mygtuką su brūkšneliu, jei norite nutolinti; arba žalių rodyklių gretimoms žemėlapius.


METAR-TAF: